Time;durP1;ratioP1;P1;durP2;ratioP2;P2;SDS_P1;SDS_P2;PMS_P1;PMS_P2;Temp;Humidity;BMP_temperature;BMP_pressure;BME280_temperature;BME280_humidity;BME280_pressure;Samples;Min_cycle;Max_cycle;Signal;HPM_P1;HPM_P2
2021/03/02 00:00:21;;;;;;;7.20;4.60;;;;;;;3.07;80.11;100966.79;1785154;80;21144;-68
2021/03/02 00:02:48;;;;;;;3.92;3.50;;;;;;;3.09;80.16;100961.31;1785093;80;21439;-68
2021/03/02 00:05:16;;;;;;;4.97;4.20;;;;;;;3.10;80.24;100956.83;1785206;80;21177;-67
2021/03/02 00:07:43;;;;;;;4.95;3.98;;;;;;;3.09;80.27;100961.31;1785103;80;21014;-69
2021/03/02 00:10:12;;;;;;;7.10;4.60;;;;;;;3.12;80.26;100949.00;1785151;80;21631;-68
2021/03/02 00:12:42;;;;;;;5.53;3.98;;;;;;;3.15;80.29;100943.36;1785037;80;21223;-68
2021/03/02 00:15:12;;;;;;;6.47;4.03;;;;;;;3.19;80.24;100933.21;1784752;80;22148;-67
2021/03/02 00:17:53;;;;;;;5.17;3.37;;;;;;;3.20;80.22;100922.91;1784960;80;21031;-67
2021/03/02 00:20:22;;;;;;;4.25;3.50;;;;;;;3.22;80.17;100925.71;1784738;80;21134;-69
2021/03/02 00:23:00;;;;;;;6.53;4.80;;;;;;;3.23;80.09;100911.92;1784960;79;21188;-68
2021/03/02 00:25:32;;;;;;;6.47;4.25;;;;;;;3.24;80.08;100903.78;1785164;80;21169;-69
2021/03/02 00:28:06;;;;;;;5.50;4.40;;;;;;;3.23;80.06;100902.13;1785233;80;21361;-70
2021/03/02 00:30:34;;;;;;;4.22;3.80;;;;;;;3.23;80.10;100894.14;1761395;80;21121;-68
2021/03/02 00:33:03;;;;;;;4.30;3.90;;;;;;;3.26;80.08;100890.33;1785268;80;21137;-68
2021/03/02 00:35:31;;;;;;;4.15;3.72;;;;;;;3.29;80.11;100888.64;1785462;80;21158;-68
2021/03/02 00:37:58;;;;;;;6.25;4.47;;;;;;;3.31;80.00;100890.11;1785244;80;21601;-68
2021/03/02 00:40:26;;;;;;;6.28;4.85;;;;;;;3.30;79.94;100874.35;1785126;80;21194;-74
2021/03/02 00:42:53;;;;;;;6.10;4.72;;;;;;;3.30;80.00;100870.36;1784941;80;21161;-68
2021/03/02 00:45:21;;;;;;;4.40;3.35;;;;;;;3.28;80.02;100868.37;1785014;80;21125;-68
2021/03/02 00:47:52;;;;;;;7.50;4.15;;;;;;;3.26;80.10;100872.52;1782512;80;21157;-70
2021/03/02 00:50:20;;;;;;;8.33;5.22;;;;;;;3.26;80.20;100864.55;1778399;80;21179;-68
2021/03/02 00:52:47;;;;;;;7.37;4.72;;;;;;;3.29;80.24;100848.27;1766768;81;21541;-70
2021/03/02 00:55:15;;;;;;;5.35;4.78;;;;;;;3.32;80.19;100856.38;1768507;81;21127;-68
2021/03/02 00:57:42;;;;;;;6.03;5.33;;;;;;;3.33;80.11;100849.56;1784550;80;21158;-68
2021/03/02 01:00:13;;;;;;;6.37;4.92;;;;;;;3.33;80.13;100846.08;1784736;80;21217;-67
2021/03/02 01:02:42;;;;;;;7.35;4.58;;;;;;;3.31;80.22;100846.77;1784502;80;21131;-69
2021/03/02 01:05:11;;;;;;;5.58;5.00;;;;;;;3.28;80.26;100839.12;1784642;80;21487;-67
2021/03/02 01:07:40;;;;;;;5.08;3.67;;;;;;;3.23;80.39;100843.63;1734583;82;21065;-65
2021/03/02 01:10:10;;;;;;;11.00;4.95;;;;;;;3.21;80.57;100840.34;1734775;82;21034;-68
2021/03/02 01:12:39;;;;;;;7.20;4.90;;;;;;;3.20;80.67;100840.00;1722100;82;21565;-68
2021/03/02 01:15:08;;;;;;;5.03;4.55;;;;;;;3.22;80.71;100823.86;1748132;82;21113;-69
2021/03/02 01:17:37;;;;;;;7.22;5.15;;;;;;;3.19;80.75;100813.59;1749009;82;21384;-70
2021/03/02 01:20:09;;;;;;;6.03;5.15;;;;;;;3.18;80.83;100818.08;1747619;82;21017;-69
2021/03/02 01:22:38;;;;;;;7.35;4.78;;;;;;;3.15;80.98;100803.81;1746740;82;21164;-70
2021/03/02 01:25:10;;;;;;;9.45;5.75;;;;;;;3.14;81.09;100793.34;1762992;81;21192;-70
2021/03/02 01:27:39;;;;;;;6.40;4.25;;;;;;;3.14;81.19;100798.66;1762990;81;21190;-69
2021/03/02 01:30:09;;;;;;;6.90;5.40;;;;;;;3.13;81.30;100783.70;1706841;82;21390;-69
2021/03/02 01:32:36;;;;;;;4.53;4.12;;;;;;;3.11;81.30;100792.38;1762793;81;21177;-69
2021/03/02 01:35:11;;;;;;;7.03;5.95;;;;;;;3.08;81.40;100795.70;1731079;82;21055;-68
2021/03/02 01:37:39;;;;;;;7.40;5.25;;;;;;;3.05;81.51;100774.80;1762814;81;21146;-70
2021/03/02 01:40:13;;;;;;;7.70;4.80;;;;;;;3.01;81.70;100772.66;1731037;82;21162;-68
2021/03/02 01:42:49;;;;;;;7.00;4.30;;;;;;;3.02;81.93;100783.09;1846657;76;22812;-68
2021/03/02 01:45:19;;;;;;;8.30;5.17;;;;;;;2.96;82.05;100765.71;1816909;78;20999;-68
2021/03/02 01:47:50;;;;;;;5.75;4.75;;;;;;;2.94;82.14;100769.03;1816903;78;21592;-68
2021/03/02 01:50:20;;;;;;;7.62;4.87;;;;;;;2.90;82.28;100763.25;1817028;79;20948;-69
2021/03/02 01:52:48;;;;;;;6.42;5.28;;;;;;;2.87;82.41;100766.27;1783902;79;21039;-68
2021/03/02 01:55:16;;;;;;;5.55;4.80;;;;;;;2.85;82.48;100762.94;1817038;78;20960;-67
2021/03/02 01:57:44;;;;;;;8.65;5.30;;;;;;;2.84;82.60;100762.60;1818151;79;20991;-70
2021/03/02 02:00:26;;;;;;;7.37;4.75;;;;;;;2.85;82.64;100756.79;1818500;79;21334;-68
2021/03/02 02:03:14;;;;;;;6.80;4.60;;;;;;;2.84;82.63;100743.17;1817156;79;21006;-68
2021/03/02 02:05:46;;;;;;;6.58;4.90;;;;;;;2.82;82.71;100759.31;1817232;79;21541;-68
2021/03/02 02:08:17;;;;;;;8.03;5.00;;;;;;;2.80;82.80;100753.83;1816812;79;20979;-68
2021/03/02 02:10:57;;;;;;;7.67;4.83;;;;;;;2.80;82.88;100755.16;1785655;79;21582;-68
2021/03/02 02:13:32;;;;;;;8.60;5.08;;;;;;;2.79;82.89;100748.17;1784757;80;22084;-68
2021/03/02 02:16:01;;;;;;;8.53;5.08;;;;;;;2.80;82.89;100739.22;1784362;80;21157;-69
2021/03/02 02:18:33;;;;;;;7.55;4.85;;;;;;;2.78;82.92;100745.22;1755511;80;21042;-67
2021/03/02 02:21:15;;;;;;;7.33;5.33;;;;;;;2.74;83.06;100743.88;1784746;80;21184;-67
2021/03/02 02:24:08;;;;;;;6.80;5.47;;;;;;;2.70;83.18;100727.47;1784613;80;21157;-68
2021/03/02 02:26:59;;;;;;;5.57;4.80;;;;;;;2.68;83.31;100729.50;1785114;80;22112;-68
2021/03/02 02:29:32;;;;;;;7.75;4.45;;;;;;;2.68;83.44;100722.02;1784618;80;21404;-70
2021/03/02 02:32:01;;;;;;;6.97;6.05;;;;;;;2.68;83.53;100733.97;1784780;80;21367;-68
2021/03/02 02:34:33;;;;;;;6.37;5.12;;;;;;;2.64;83.52;100725.01;1784848;79;21157;-68
2021/03/02 02:37:01;;;;;;;6.95;5.83;;;;;;;2.62;83.63;100720.39;1784325;80;21045;-69
2021/03/02 02:39:33;;;;;;;7.85;6.12;;;;;;;2.60;83.71;100716.23;1785663;80;21360;-67
2021/03/02 02:42:02;;;;;;;9.40;5.55;;;;;;;2.61;83.80;100699.30;1749858;81;21203;-67
2021/03/02 02:44:30;;;;;;;4.87;4.47;;;;;;;2.62;83.79;100702.30;1736516;82;21194;-72
2021/03/02 02:46:59;;;;;;;7.10;4.87;;;;;;;2.63;83.74;100703.45;1757318;81;21117;-68
2021/03/02 02:49:27;;;;;;;6.75;5.00;;;;;;;2.61;83.73;100699.30;1725782;81;27756;-69
2021/03/02 02:51:54;;;;;;;9.83;7.15;;;;;;;2.58;83.79;100679.75;1722146;83;21392;-68
2021/03/02 02:54:22;;;;;;;6.95;5.90;;;;;;;2.54;83.85;100679.24;1716442;83;21004;-68
2021/03/02 02:56:51;;;;;;;5.80;5.12;;;;;;;2.55;83.96;100690.20;1716481;83;21194;-69
2021/03/02 02:59:32;;;;;;;9.63;4.50;;;;;;;2.54;84.04;100671.28;1716416;83;21719;-68
2021/03/02 03:02:02;;;;;;;5.62;4.83;;;;;;;2.55;84.11;100684.89;1716517;83;21115;-70
2021/03/02 03:04:44;;;;;;;7.17;5.72;;;;;;;2.52;84.11;100706.48;1716339;83;21387;-68
2021/03/02 03:07:20;;;;;;;7.00;4.87;;;;;;;2.45;84.22;100681.61;1716228;83;21195;-68
2021/03/02 03:09:50;;;;;;;7.87;5.90;;;;;;;2.42;84.48;100681.97;1702547;83;21152;-67
2021/03/02 03:12:17;;;;;;;9.25;6.47;;;;;;;2.43;84.58;100674.84;1716479;83;21020;-70
2021/03/02 03:14:51;;;;;;;7.97;5.85;;;;;;;2.43;84.68;100679.65;1716407;83;21207;-67
2021/03/02 03:17:19;;;;;;;8.40;5.30;;;;;;;2.42;84.73;100682.47;1716631;83;21448;-67
2021/03/02 03:19:48;;;;;;;5.08;4.58;;;;;;;2.40;84.81;100692.45;1716387;83;21025;-68
2021/03/02 03:22:16;;;;;;;10.53;6.05;;;;;;;2.39;84.92;100685.48;1717231;82;21130;-70
2021/03/02 03:24:44;;;;;;;7.80;6.03;;;;;;;2.35;85.15;100685.50;1718217;82;21202;-68
2021/03/02 03:27:11;;;;;;;11.60;6.55;;;;;;;2.31;85.29;100705.39;1716731;83;21611;-69
2021/03/02 03:29:39;;;;;;;7.72;5.25;;;;;;;2.31;85.48;100690.80;1696168;83;21226;-68
2021/03/02 03:32:07;;;;;;;6.95;5.40;;;;;;;2.30;85.57;100698.45;1672970;83;21124;-69
2021/03/02 03:34:35;;;;;;;6.72;4.78;;;;;;;2.29;85.62;100725.50;1696086;83;21219;-68
2021/03/02 03:37:02;;;;;;;7.05;5.42;;;;;;;2.28;85.68;100710.56;1716184;83;21143;-69
2021/03/02 03:39:30;;;;;;;7.55;5.45;;;;;;;2.27;85.81;100692.14;1716438;83;21127;-70
2021/03/02 03:41:59;;;;;;;9.48;6.37;;;;;;;2.24;85.96;100680.06;1707645;83;21391;-67
2021/03/02 03:44:27;;;;;;;7.00;6.08;;;;;;;2.23;86.04;100673.59;1721715;83;21075;-69
2021/03/02 03:46:54;;;;;;;9.70;6.22;;;;;;;2.22;86.19;100684.70;1721761;82;21161;-67
2021/03/02 03:49:22;;;;;;;6.95;5.97;;;;;;;2.21;86.21;100681.71;1721621;83;21158;-68
2021/03/02 03:51:50;;;;;;;8.58;6.55;;;;;;;2.17;86.40;100676.42;1721580;83;21702;-67
2021/03/02 03:54:17;;;;;;;9.25;6.25;;;;;;;2.14;86.56;100670.14;1701742;83;22865;-68
2021/03/02 03:56:44;;;;;;;8.33;7.22;;;;;;;2.13;86.73;100667.16;1701232;83;21192;-69
2021/03/02 03:59:12;;;;;;;11.03;6.67;;;;;;;2.12;86.87;100669.47;1721506;83;21201;-68
2021/03/02 04:01:40;;;;;;;10.08;6.03;;;;;;;2.10;86.97;100665.69;1749912;81;21090;-69
2021/03/02 04:04:07;;;;;;;7.55;6.37;;;;;;;2.09;87.03;100659.21;1722203;83;21121;-68
2021/03/02 04:06:34;;;;;;;8.50;6.92;;;;;;;2.05;87.16;100647.29;1723562;83;23603;-66
2021/03/02 04:09:03;;;;;;;7.28;6.08;;;;;;;2.01;87.36;100649.47;1721823;83;21598;-68
2021/03/02 04:11:33;;;;;;;8.63;6.20;;;;;;;2.02;87.53;100661.71;1678529;83;21634;-70
2021/03/02 04:14:00;;;;;;;10.35;7.42;;;;;;;2.02;87.59;100646.28;1749359;81;21418;-68
2021/03/02 04:16:28;;;;;;;9.68;6.60;;;;;;;1.98;87.67;100656.42;1721733;83;21130;-66
2021/03/02 04:18:57;;;;;;;8.38;5.92;;;;;;;1.95;87.80;100641.35;1721697;81;21209;-67
2021/03/02 04:21:24;;;;;;;12.07;8.40;;;;;;;1.95;87.92;100644.00;1721541;83;21219;-68
2021/03/02 04:23:52;;;;;;;10.28;7.65;;;;;;;1.94;87.96;100657.77;1721447;83;21188;-70
2021/03/02 04:26:20;;;;;;;7.22;5.80;;;;;;;1.94;88.05;100660.41;1721964;83;21185;-67
2021/03/02 04:28:47;;;;;;;8.78;6.55;;;;;;;1.91;88.11;100670.05;1721521;83;21129;-68
2021/03/02 04:31:15;;;;;;;8.13;7.33;;;;;;;1.90;88.23;100653.80;1721739;83;21541;-67
2021/03/02 04:33:42;;;;;;;8.27;7.00;;;;;;;1.89;88.32;100638.05;1721543;83;21654;-67
2021/03/02 04:36:10;;;;;;;9.30;6.55;;;;;;;1.88;88.43;100640.36;1721442;83;21051;-69
2021/03/02 04:38:38;;;;;;;8.53;6.35;;;;;;;1.90;88.46;100648.50;1721570;83;21134;-71
2021/03/02 04:41:05;;;;;;;7.57;4.97;;;;;;;1.92;88.47;100632.42;1721665;83;21675;-69
2021/03/02 04:43:33;;;;;;;10.93;7.93;;;;;;;1.92;88.41;100633.22;1727499;82;21515;-69
2021/03/02 04:46:00;;;;;;;8.73;6.37;;;;;;;1.92;88.37;100634.55;1728422;83;21579;-68
2021/03/02 04:48:28;;;;;;;7.40;6.00;;;;;;;1.92;88.44;100635.88;1728564;82;21123;-68
2021/03/02 04:50:55;;;;;;;7.55;6.17;;;;;;;1.94;88.46;100630.41;1729249;83;21190;-71
2021/03/02 04:53:23;;;;;;;7.83;6.33;;;;;;;1.93;88.50;100618.97;1729911;83;21130;-68
2021/03/02 04:55:51;;;;;;;7.73;6.93;;;;;;;1.92;88.45;100632.42;1729515;83;21216;-69
2021/03/02 04:58:18;;;;;;;6.33;5.07;;;;;;;1.91;88.45;100628.11;1728243;83;21210;-69
2021/03/02 05:00:46;;;;;;;6.25;4.70;;;;;;;1.89;88.52;100632.25;1728506;83;21640;-66
2021/03/02 05:03:14;;;;;;;6.35;5.67;;;;;;;1.90;88.62;100621.97;1728416;81;21282;-66
2021/03/02 05:05:41;;;;;;;9.40;6.62;;;;;;;1.93;88.60;100611.50;1728196;83;21193;-70
2021/03/02 05:08:09;;;;;;;8.38;6.60;;;;;;;1.93;88.56;100634.88;1728256;83;22224;-67
2021/03/02 05:10:37;;;;;;;8.08;6.17;;;;;;;1.91;88.53;100614.84;1728286;83;21150;-68
2021/03/02 05:13:04;;;;;;;9.20;6.55;;;;;;;1.89;88.60;100629.59;1728112;82;21197;-70
2021/03/02 05:15:32;;;;;;;6.65;5.55;;;;;;;1.89;88.67;100632.25;1727946;81;21245;-66
2021/03/02 05:17:59;;;;;;;7.08;6.25;;;;;;;1.89;88.78;100622.97;1728377;83;21146;-68
2021/03/02 05:20:27;;;;;;;9.30;7.40;;;;;;;1.92;88.78;100629.24;1728176;81;21424;-66
2021/03/02 05:22:54;;;;;;;7.35;5.60;;;;;;;1.92;88.68;100637.20;1703593;83;21951;-68
2021/03/02 05:25:21;;;;;;;6.25;5.45;;;;;;;1.93;88.70;100626.09;1728324;81;21185;-68
2021/03/02 05:27:49;;;;;;;8.85;5.05;;;;;;;1.92;88.72;100651.79;1728371;81;21154;-67
2021/03/02 05:30:18;;;;;;;8.80;6.12;;;;;;;1.93;88.75;100636.20;1728814;82;21098;-67
2021/03/02 05:32:45;;;;;;;12.75;7.85;;;;;;;1.95;88.75;100631.57;1730233;83;22127;-68
2021/03/02 05:35:13;;;;;;;10.43;6.80;;;;;;;1.96;88.72;100629.25;1728369;82;21213;-69
2021/03/02 05:37:41;;;;;;;7.40;5.70;;;;;;;1.98;88.64;100646.30;1728423;83;21647;-67
2021/03/02 05:40:11;;;;;;;6.55;5.60;;;;;;;1.93;88.73;100643.34;1728307;83;21792;-69
2021/03/02 05:42:40;;;;;;;8.43;7.05;;;;;;;1.92;88.84;100623.14;1722460;81;21132;-68
2021/03/02 05:45:09;;;;;;;9.50;6.28;;;;;;;1.93;88.95;100627.42;1714149;83;21267;-67
2021/03/02 05:47:40;;;;;;;9.38;7.17;;;;;;;1.92;88.97;100641.70;1714099;83;21143;-69
2021/03/02 05:50:09;;;;;;;7.85;6.62;;;;;;;1.92;89.02;100617.83;1694700;83;21644;-68
2021/03/02 05:52:37;;;;;;;11.22;7.62;;;;;;;1.92;88.99;100612.53;1693765;84;21182;-68
2021/03/02 05:55:06;;;;;;;8.43;5.87;;;;;;;1.94;89.02;100623.77;1714302;83;21647;-68
2021/03/02 05:57:34;;;;;;;8.43;7.37;;;;;;;1.92;89.10;100626.59;1720551;83;21380;-69
2021/03/02 06:00:01;;;;;;;8.73;7.28;;;;;;;1.95;89.09;100614.83;1714202;83;21035;-70
2021/03/02 06:02:31;;;;;;;10.32;7.87;;;;;;;1.95;89.07;100622.28;1693681;84;21186;-69
2021/03/02 06:04:59;;;;;;;9.43;6.35;;;;;;;1.94;89.10;100615.81;1713982;83;21187;-67
2021/03/02 06:07:26;;;;;;;9.68;7.05;;;;;;;1.93;89.10;100614.98;1694242;84;21603;-70
2021/03/02 06:09:53;;;;;;;9.40;5.92;;;;;;;1.96;89.20;100623.95;1714866;83;21367;-67
2021/03/02 06:12:21;;;;;;;6.15;5.25;;;;;;;1.97;89.16;100610.98;1693922;84;21237;-68
2021/03/02 06:14:50;;;;;;;12.13;7.28;;;;;;;1.99;89.17;100621.44;1714446;83;21548;-68
2021/03/02 06:17:22;;;;;;;10.53;7.58;;;;;;;2.00;89.11;100618.62;1696107;84;21186;-77
2021/03/02 06:19:50;;;;;;;8.00;6.95;;;;;;;2.00;89.10;100602.70;1694672;83;21190;-74
2021/03/02 06:22:33;;;;;;;9.88;6.87;;;;;;;1.99;89.30;100616.13;1693754;84;21372;-72
2021/03/02 06:25:03;;;;;;;6.85;5.95;;;;;;;2.02;89.36;100622.41;1713904;83;21241;-71
2021/03/02 06:27:32;;;;;;;12.65;7.90;;;;;;;2.04;89.46;100608.48;1714143;83;21008;-71
2021/03/02 06:30:15;;;;;;;9.15;7.47;;;;;;;2.05;89.33;100612.30;1714294;83;20999;-72
2021/03/02 06:32:54;;;;;;;11.05;8.10;;;;;;;2.06;89.31;100630.37;1742659;81;21174;-72
2021/03/02 06:35:38;;;;;;;10.25;7.47;;;;;;;2.05;89.32;100612.30;1714374;83;21217;-73
2021/03/02 06:38:05;;;;;;;12.85;8.43;;;;;;;2.06;89.33;100613.14;1714598;83;21181;-71
2021/03/02 06:43:36;;;;;;;13.10;9.23;;;;;;;2.10;89.36;100599.84;1889020;76;22600;-75
2021/03/02 06:46:09;;;;;;;11.08;7.97;;;;;;;2.06;89.35;100612.61;1859974;77;21594;-74
2021/03/02 06:48:57;;;;;;;12.47;9.70;;;;;;;2.09;89.45;100603.49;1859674;77;21365;-75
2021/03/02 06:51:32;;;;;;;15.35;7.75;;;;;;;2.14;89.50;100610.44;1859885;77;20994;-72
2021/03/02 06:54:24;;;;;;;14.68;8.68;;;;;;;2.18;89.32;100616.55;1859115;77;20987;-70
2021/03/02 06:57:03;;;;;;;14.43;9.35;;;;;;;2.18;89.08;100634.30;1858993;77;20999;-70
2021/03/02 06:59:30;;;;;;;14.75;9.93;;;;;;;2.17;89.00;100599.47;1860279;77;21093;-71
2021/03/02 07:01:58;;;;;;;11.97;8.35;;;;;;;2.22;89.06;100609.56;1826480;77;21594;-71
2021/03/02 07:04:29;;;;;;;15.75;8.75;;;;;;;2.22;88.94;100624.16;1859783;77;21610;-71
2021/03/02 07:07:01;;;;;;;12.47;8.88;;;;;;;2.25;88.89;100599.95;1845344;77;21573;-72
2021/03/02 07:09:29;;;;;;;12.53;8.30;;;;;;;2.24;88.75;100627.48;1826407;78;21061;-73
2021/03/02 07:11:57;;;;;;;13.83;8.90;;;;;;;2.20;88.67;100599.14;1825987;78;21077;-80
2021/03/02 07:14:27;;;;;;;13.43;8.90;;;;;;;2.17;88.83;100602.12;1826323;78;21477;-71
2021/03/02 07:16:55;;;;;;;13.30;9.95;;;;;;;2.17;88.98;100594.16;1821859;78;21129;-77
2021/03/02 07:19:23;;;;;;;16.02;8.98;;;;;;;2.16;88.96;100594.66;1791884;80;21223;-71
2021/03/02 07:21:57;;;;;;;12.78;8.83;;;;;;;2.16;89.01;100590.67;1789960;78;21088;-71
2021/03/02 07:24:26;;;;;;;15.25;9.43;;;;;;;2.16;88.99;100593.33;1756717;80;21134;-71
2021/03/02 07:26:57;;;;;;;14.10;9.28;;;;;;;2.15;89.02;100609.44;1787184;80;22294;-72
2021/03/02 07:29:24;;;;;;;14.07;9.55;;;;;;;2.13;89.08;100606.95;1787239;80;21575;-72
2021/03/02 07:31:51;;;;;;;12.40;9.30;;;;;;;2.14;89.11;100605.12;1787221;80;21066;-73
2021/03/02 07:34:19;;;;;;;13.60;9.35;;;;;;;2.15;89.10;100595.68;1756935;80;21192;-70
2021/03/02 07:36:47;;;;;;;12.82;8.18;;;;;;;2.14;89.02;100599.33;1788000;80;21074;-70
2021/03/02 07:39:19;;;;;;;13.43;9.88;;;;;;;2.16;89.08;100602.61;1787610;80;21457;-71
2021/03/02 07:41:49;;;;;;;12.95;8.53;;;;;;;2.17;89.00;100591.01;1788096;80;21179;-73
2021/03/02 07:44:17;;;;;;;14.68;9.48;;;;;;;2.21;88.91;100578.20;1793149;80;21049;-69
2021/03/02 07:46:53;;;;;;;12.33;8.93;;;;;;;2.21;88.77;100589.36;1793012;80;21593;-73
2021/03/02 07:49:28;;;;;;;15.32;10.20;;;;;;;2.22;88.76;100577.71;1792861;80;21156;-71
2021/03/02 07:52:04;;;;;;;16.30;12.73;;;;;;;2.21;88.63;100581.39;1764402;80;21498;-70
2021/03/02 07:54:35;;;;;;;13.90;8.90;;;;;;;2.24;88.65;100568.59;1792506;80;21767;-72
2021/03/02 07:57:19;;;;;;;14.58;9.33;;;;;;;2.26;88.64;100568.39;1792301;80;21257;-72
2021/03/02 08:00:21;;;;;;;18.30;10.48;;;;;;;2.28;88.53;100570.39;1790613;80;21161;-71
2021/03/02 08:03:21;;;;;;;14.28;8.58;;;;;;;2.31;88.48;100557.59;1792415;80;21117;-73
2021/03/02 08:05:55;;;;;;;12.43;8.45;;;;;;;2.33;88.31;100557.42;1792485;80;21393;-72
2021/03/02 08:08:28;;;;;;;18.62;12.13;;;;;;;2.30;88.14;100558.61;1792334;80;21007;-70
2021/03/02 08:10:58;;;;;;;12.88;9.18;;;;;;;2.31;88.16;100566.05;1792139;80;21054;-70
2021/03/02 08:13:40;;;;;;;12.03;9.83;;;;;;;2.32;88.15;100553.94;1792364;80;21209;-71
2021/03/02 08:16:10;;;;;;;14.28;9.03;;;;;;;2.34;88.11;100567.05;1792537;80;21660;-72
2021/03/02 08:18:40;;;;;;;15.05;9.58;;;;;;;2.33;88.01;100560.08;1793296;80;21196;-70
2021/03/02 08:21:19;;;;;;;15.38;10.18;;;;;;;2.33;88.00;100554.77;1794203;80;21482;-71
2021/03/02 08:23:51;;;;;;;18.52;9.70;;;;;;;2.34;88.02;100536.52;1792639;80;20983;-72
2021/03/02 08:26:32;;;;;;;13.48;9.10;;;;;;;2.38;88.02;100557.72;1792396;80;21188;-72
2021/03/02 08:29:16;;;;;;;14.30;9.35;;;;;;;2.41;87.92;100543.59;1792592;80;21594;-70
2021/03/02 08:31:50;;;;;;;14.47;10.60;;;;;;;2.39;87.75;100560.22;1792519;80;21813;-69
2021/03/02 08:34:20;;;;;;;13.48;9.58;;;;;;;2.37;87.77;100534.33;1764163;80;21591;-72
2021/03/02 08:36:50;;;;;;;15.08;10.03;;;;;;;2.39;87.73;100536.82;1792570;80;21650;-70
2021/03/02 08:39:20;;;;;;;15.08;10.65;;;;;;;2.42;87.63;100530.65;1792531;80;21129;-70
2021/03/02 08:41:49;;;;;;;16.27;10.58;;;;;;;2.45;87.63;100543.56;1790401;80;21519;-72
2021/03/02 08:44:21;;;;;;;13.72;9.73;;;;;;;2.48;87.54;100543.23;1759713;81;22245;-69
2021/03/02 08:46:52;;;;;;;18.20;12.33;;;;;;;2.50;87.41;100561.11;1759348;81;21156;-72
2021/03/02 08:49:19;;;;;;;14.05;9.28;;;;;;;2.51;87.20;100547.34;1759581;81;21062;-70
2021/03/02 08:51:47;;;;;;;18.12;9.08;;;;;;;2.51;87.13;100536.22;1759517;81;21537;-71
2021/03/02 08:54:14;;;;;;;18.12;11.35;;;;;;;2.54;87.12;100528.42;1759492;81;21590;-72
2021/03/02 08:56:42;;;;;;;15.40;10.60;;;;;;;2.56;86.99;100531.20;1759483;81;21644;-71
2021/03/02 08:59:18;;;;;;;17.90;11.25;;;;;;;2.58;86.79;100528.39;1759493;81;21181;-69
2021/03/02 09:01:45;;;;;;;15.10;10.93;;;;;;;2.56;86.59;100533.03;1759514;81;21704;-70
2021/03/02 09:04:16;;;;;;;13.80;10.10;;;;;;;2.56;86.57;100551.12;1760871;81;21116;-70
2021/03/02 09:06:47;;;;;;;19.80;12.20;;;;;;;2.56;86.49;100568.38;1759786;81;21009;-70
2021/03/02 09:09:21;;;;;;;16.25;10.68;;;;;;;2.57;86.49;100551.45;1759391;81;21132;-73
2021/03/02 09:11:54;;;;;;;14.83;9.05;;;;;;;2.60;86.45;100546.28;1759447;81;21152;-70
2021/03/02 09:14:25;;;;;;;16.00;10.43;;;;;;;2.54;86.09;100557.09;1759765;81;21031;-72
2021/03/02 09:17:02;;;;;;;18.77;9.88;;;;;;;2.56;86.18;100544.98;1759416;81;21140;-69
2021/03/02 09:19:32;;;;;;;14.10;9.58;;;;;;;2.56;86.26;100539.17;1759502;81;21037;-71
2021/03/02 09:22:10;;;;;;;16.50;9.03;;;;;;;2.57;86.16;100518.76;1759493;81;21333;-71
2021/03/02 09:24:58;;;;;;;16.57;10.65;;;;;;;2.57;85.97;100530.70;1759338;81;21085;-73
2021/03/02 09:27:32;;;;;;;14.87;10.05;;;;;;;2.56;85.89;100524.57;1759635;81;21018;-72
2021/03/02 09:30:00;;;;;;;19.73;11.43;;;;;;;2.58;85.97;100525.23;1759379;81;21152;-73
2021/03/02 09:32:30;;;;;;;13.10;9.75;;;;;;;2.61;85.93;100531.50;1759484;81;21538;-68
2021/03/02 09:35:01;;;;;;;14.85;9.70;;;;;;;2.64;85.82;100538.28;1759546;81;21811;-67
2021/03/02 09:37:29;;;;;;;17.92;10.80;;;;;;;2.67;86.06;100546.41;1759506;81;21156;-67
2021/03/02 09:40:12;;;;;;;13.00;10.18;;;;;;;2.79;87.07;100524.55;1759180;81;21585;-65
2021/03/02 09:42:41;;;;;;;19.80;10.72;;;;;;;2.89;86.38;100535.75;1795638;78;21538;-69
2021/03/02 09:45:17;;;;;;;20.20;11.83;;;;;;;2.99;85.75;100538.98;1823817;78;21217;-68
2021/03/02 09:47:46;;;;;;;16.95;9.30;;;;;;;2.99;84.83;100546.13;1824291;78;22481;-69
2021/03/02 09:50:17;;;;;;;20.65;11.88;;;;;;;2.96;84.47;100544.67;1823292;78;21027;-70
2021/03/02 09:52:50;;;;;;;19.73;12.55;;;;;;;2.95;84.39;100533.71;1822720;78;21011;-67
2021/03/02 09:58:10;;;;;;;19.23;11.27;;;;;;;2.89;84.53;100514.50;1846986;76;22767;-67
2021/03/02 10:00:59;;;;;;;18.12;12.75;;;;;;;2.84;84.65;100520.02;1817132;78;20999;-67
2021/03/02 10:03:27;;;;;;;21.97;13.22;;;;;;;2.84;84.79;100514.20;1816774;79;21361;-69
2021/03/02 10:05:57;;;;;;;17.98;11.35;;;;;;;2.84;84.75;100511.55;1795964;78;21662;-68
2021/03/02 10:08:40;;;;;;;22.22;11.05;;;;;;;2.86;84.78;100499.43;1784413;80;21050;-68
2021/03/02 10:11:17;;;;;;;25.35;15.03;;;;;;;2.84;84.89;100486.31;1784766;80;21026;-68
2021/03/02 10:13:55;;;;;;;17.55;11.25;;;;;;;2.83;84.91;100493.16;1784782;80;21098;-72
2021/03/02 10:16:38;;;;;;;20.57;11.88;;;;;;;2.86;85.01;100486.14;1784494;80;21189;-68
2021/03/02 10:19:23;;;;;;;16.25;11.22;;;;;;;2.88;84.97;100463.69;1784813;80;26307;-68
2021/03/02 10:21:59;;;;;;;19.70;12.40;;;;;;;2.92;85.02;100472.15;1784634;80;21650;-68
2021/03/02 10:24:32;;;;;;;21.82;12.82;;;;;;;2.91;84.82;100458.54;1784456;80;21149;-69
2021/03/02 10:27:10;;;;;;;17.32;9.75;;;;;;;2.89;84.81;100461.36;1784995;80;21090;-68
2021/03/02 10:29:39;;;;;;;20.55;11.70;;;;;;;2.90;84.85;100460.86;1787504;80;21751;-68
2021/03/02 10:32:08;;;;;;;22.55;12.70;;;;;;;2.88;84.79;100457.55;1785631;80;21077;-68
2021/03/02 10:34:37;;;;;;;20.92;12.03;;;;;;;2.88;84.84;100450.91;1785290;80;21030;-68
2021/03/02 10:37:06;;;;;;;23.15;13.13;;;;;;;2.88;84.85;100458.88;1785304;80;21193;-68
2021/03/02 10:39:33;;;;;;;20.37;11.63;;;;;;;2.89;84.93;100462.69;1784890;80;21173;-69
2021/03/02 10:42:02;;;;;;;22.55;13.35;;;;;;;2.90;84.90;100457.70;1784560;80;21441;-69
2021/03/02 10:44:31;;;;;;;22.13;12.55;;;;;;;2.91;84.83;100447.91;1784599;80;21838;-67
2021/03/02 10:46:59;;;;;;;21.90;13.08;;;;;;;2.90;84.77;100444.42;1784216;79;21153;-68
2021/03/02 10:49:27;;;;;;;22.45;13.72;;;;;;;2.88;84.74;100456.22;1784521;80;21169;-69
2021/03/02 10:51:54;;;;;;;22.98;14.68;;;;;;;2.89;84.75;100448.58;1784502;80;21157;-67
2021/03/02 10:54:23;;;;;;;23.55;12.53;;;;;;;2.91;84.78;100438.61;1784414;80;21268;-69
2021/03/02 10:56:51;;;;;;;25.97;14.25;;;;;;;2.94;84.81;100435.08;1790057;79;21197;-69
2021/03/02 10:59:18;;;;;;;23.07;13.18;;;;;;;2.96;84.69;100426.44;1799148;78;21140;-67
2021/03/02 11:01:46;;;;;;;27.30;14.60;;;;;;;2.97;84.58;100437.89;1799002;78;21026;-69
2021/03/02 11:04:13;;;;;;;27.52;14.03;;;;;;;2.96;84.55;100419.80;1799074;79;21332;-69
2021/03/02 11:06:42;;;;;;;26.30;15.93;;;;;;;2.96;84.47;100410.50;1799439;79;21383;-70
2021/03/02 11:09:11;;;;;;;26.52;16.20;;;;;;;2.99;84.38;100413.27;1798403;78;20979;-69
2021/03/02 11:11:38;;;;;;;27.25;15.15;;;;;;;2.97;84.35;100404.14;1799777;79;21129;-69
2021/03/02 11:14:06;;;;;;;25.90;14.55;;;;;;;2.98;84.30;100411.12;1799620;79;21132;-68
2021/03/02 11:16:33;;;;;;;30.57;16.52;;;;;;;2.99;84.19;100412.77;1799007;78;21589;-69
2021/03/02 11:19:01;;;;;;;24.82;13.55;;;;;;;2.99;84.16;100410.12;1772095;79;21195;-68
2021/03/02 11:21:29;;;;;;;31.48;15.80;;;;;;;3.02;84.08;100403.63;1798587;78;21026;-68
2021/03/02 11:23:56;;;;;;;28.35;16.27;;;;;;;3.06;83.98;100387.63;1798487;78;21204;-69
2021/03/02 11:26:23;;;;;;;27.02;15.72;;;;;;;3.06;83.76;100397.77;1798627;79;21177;-68
2021/03/02 11:28:51;;;;;;;31.50;17.45;;;;;;;3.10;83.70;100390.23;1798714;78;21648;-68
2021/03/02 11:31:18;;;;;;;38.92;22.25;;;;;;;3.14;83.72;100380.88;1798388;79;21455;-70
2021/03/02 11:33:47;;;;;;;28.20;15.63;;;;;;;3.16;83.52;100387.35;1798739;79;21635;-69
2021/03/02 11:36:18;;;;;;;29.70;18.75;;;;;;;3.18;83.30;100400.76;1798534;79;21132;-70
2021/03/02 11:38:45;;;;;;;31.12;17.37;;;;;;;3.20;83.21;100393.94;1798564;79;21160;-68
2021/03/02 11:41:15;;;;;;;35.98;17.85;;;;;;;3.22;83.21;100384.76;1798616;79;21129;-70
2021/03/02 11:43:43;;;;;;;31.27;17.23;;;;;;;3.26;82.79;100388.69;1798633;79;21121;-69
2021/03/02 11:46:11;;;;;;;33.05;16.75;;;;;;;3.28;82.70;100369.41;1798293;79;21188;-68
2021/03/02 11:48:39;;;;;;;35.60;17.70;;;;;;;3.27;82.37;100370.91;1779798;80;21547;-70